createdAt,value
2022-12-22T00:01:56.654Z,2.70
2022-12-22T00:12:38.624Z,3.55
2022-12-22T00:17:59.141Z,3.78
2022-12-22T00:23:19.740Z,2.95
2022-12-22T00:28:40.307Z,3.88
2022-12-22T00:34:00.724Z,4.57
2022-12-22T00:39:21.327Z,4.10
2022-12-22T00:44:41.808Z,2.38
2022-12-22T00:50:04.689Z,2.05
2022-12-22T00:55:37.534Z,2.25
2022-12-22T01:00:57.696Z,1.38
2022-12-22T01:06:20.505Z,2.92
2022-12-22T01:11:40.828Z,1.67
2022-12-22T01:17:01.087Z,4.97
2022-12-22T01:22:21.392Z,1.95
2022-12-22T01:27:41.610Z,1.88
2022-12-22T01:33:02.211Z,2.15
2022-12-22T01:38:22.420Z,4.25
2022-12-22T01:43:46.494Z,2.30
2022-12-22T01:49:07.090Z,1.58
2022-12-22T01:54:29.283Z,1.60
2022-12-22T02:05:11.571Z,1.35
2022-12-22T02:10:37.879Z,1.58
2022-12-22T02:16:15.962Z,2.05
2022-12-22T02:21:40.941Z,1.73
2022-12-22T02:27:09.879Z,1.42
2022-12-22T02:32:30.487Z,5.65
2022-12-22T02:38:02.594Z,1.98
2022-12-22T02:43:44.681Z,2.77
2022-12-22T02:49:13.684Z,2.28
2022-12-22T02:54:36.085Z,0.90
2022-12-22T02:59:56.649Z,1.63
2022-12-22T03:05:17.178Z,3.75
2022-12-22T03:10:37.706Z,2.30
2022-12-22T03:15:57.771Z,1.73
2022-12-22T03:21:17.841Z,2.10
2022-12-22T03:26:19.641Z,2.20
2022-12-22T03:31:21.468Z,0.65
2022-12-22T03:36:23.113Z,2.50
2022-12-22T03:41:43.247Z,3.42
2022-12-22T03:46:44.967Z,0.90
2022-12-22T03:51:51.207Z,2.15
2022-12-22T03:56:53.736Z,3.00
2022-12-22T04:01:56.082Z,2.03
2022-12-22T04:06:58.531Z,1.73
2022-12-22T04:12:18.775Z,1.73
2022-12-22T04:17:20.417Z,2.33
2022-12-22T04:22:22.149Z,0.40
2022-12-22T04:27:23.833Z,0.40
2022-12-22T04:32:25.516Z,0.30
2022-12-22T04:37:27.550Z,0.70
2022-12-22T04:42:29.703Z,2.17
2022-12-22T04:47:31.465Z,1.88
2022-12-22T04:52:34.286Z,1.05
2022-12-22T04:57:40.519Z,3.53
2022-12-22T05:02:42.752Z,0.82
2022-12-22T05:07:44.504Z,1.20
2022-12-22T05:12:55.012Z,0.75
2022-12-22T05:17:57.695Z,8.30
2022-12-22T05:22:59.415Z,2.92
2022-12-22T05:28:01.087Z,6.03
2022-12-22T05:33:02.835Z,5.15
2022-12-22T05:38:04.547Z,2.90
2022-12-22T05:43:11.191Z,2.33
2022-12-22T05:48:13.517Z,1.38
2022-12-22T05:53:15.202Z,2.72
2022-12-22T05:58:16.854Z,3.70
2022-12-22T06:03:18.679Z,2.78
2022-12-22T06:08:20.744Z,6.78
2022-12-22T06:13:22.965Z,3.58
2022-12-22T06:18:24.781Z,3.50
2022-12-22T06:23:26.476Z,5.07
2022-12-22T06:28:28.646Z,9.95
2022-12-22T06:33:30.300Z,2.63
2022-12-22T06:38:32.365Z,2.47
2022-12-22T06:43:34.071Z,2.60
2022-12-22T06:48:35.831Z,6.45
2022-12-22T06:53:37.479Z,4.20
2022-12-22T06:58:39.172Z,3.80
2022-12-22T07:03:40.966Z,7.25
2022-12-22T07:08:42.643Z,3.42
2022-12-22T07:13:44.853Z,6.78
2022-12-22T07:18:46.579Z,7.05
2022-12-22T07:23:48.463Z,4.55
2022-12-22T07:28:50.156Z,4.45
2022-12-22T07:33:52.175Z,5.63
2022-12-22T07:38:53.973Z,5.90
2022-12-22T07:43:57.791Z,7.00
2022-12-22T07:49:32.305Z,11.82
2022-12-22T07:54:41.210Z,9.60
2022-12-22T07:59:43.632Z,8.63
2022-12-22T08:04:45.375Z,9.52
2022-12-22T08:09:47.279Z,13.05
2022-12-22T08:14:49.029Z,6.03
2022-12-22T08:19:50.758Z,14.75
2022-12-22T08:24:53.355Z,5.03
2022-12-22T08:29:59.066Z,7.47
2022-12-22T08:35:00.887Z,6.95
2022-12-22T08:40:06.574Z,3.67
2022-12-22T08:45:11.263Z,4.43
2022-12-22T08:50:13.897Z,7.15
2022-12-22T08:55:15.642Z,2.60
2022-12-22T09:00:29.338Z,6.22
2022-12-22T09:05:33.071Z,7.10
2022-12-22T09:10:34.857Z,9.40
2022-12-22T09:15:37.541Z,6.38
2022-12-22T09:20:39.221Z,5.97
2022-12-22T09:25:40.885Z,3.85
2022-12-22T09:30:42.580Z,5.72
2022-12-22T09:35:44.383Z,11.13
2022-12-22T09:40:46.367Z,4.90
2022-12-22T09:45:48.208Z,6.32
2022-12-22T09:50:49.969Z,12.27
2022-12-22T09:55:51.966Z,11.15
2022-12-22T10:01:05.826Z,5.03
2022-12-22T10:06:18.645Z,13.35
2022-12-22T10:11:20.451Z,8.18
2022-12-22T10:16:28.774Z,7.88
2022-12-22T10:21:30.515Z,13.15
2022-12-22T10:26:33.885Z,7.72
2022-12-22T10:31:39.937Z,7.18
2022-12-22T10:36:50.302Z,10.02
2022-12-22T10:41:55.272Z,6.88
2022-12-22T10:46:59.704Z,5.38
2022-12-22T10:52:29.414Z,8.23
2022-12-22T11:02:43.610Z,8.35
2022-12-22T11:07:49.552Z,8.88
2022-12-22T11:13:22.437Z,4.72
2022-12-22T11:18:50.599Z,3.92
2022-12-22T11:24:21.679Z,10.52
2022-12-22T11:30:04.769Z,9.40
2022-12-22T11:35:38.221Z,7.80
2022-12-22T11:40:46.878Z,4.70
2022-12-22T11:46:26.837Z,4.82
2022-12-22T11:51:55.625Z,4.20
2022-12-22T11:57:11.017Z,3.38
2022-12-22T12:02:31.192Z,5.35
2022-12-22T12:07:44.963Z,6.78
2022-12-22T12:13:10.604Z,6.78
2022-12-22T12:18:46.376Z,5.38
2022-12-22T12:23:56.371Z,5.68
2022-12-22T12:29:22.036Z,4.63
2022-12-22T12:34:25.464Z,4.22
2022-12-22T12:39:45.160Z,3.78
2022-12-22T12:44:47.733Z,2.42
2022-12-22T12:49:55.412Z,4.68
2022-12-22T12:55:29.645Z,7.82
2022-12-22T13:00:33.493Z,2.72
2022-12-22T13:05:51.755Z,5.95
2022-12-22T13:10:53.447Z,5.88
2022-12-22T13:16:04.490Z,3.55
2022-12-22T13:21:50.321Z,5.80
2022-12-22T13:26:36.462Z,3.22
2022-12-22T13:31:44.820Z,5.28
2022-12-22T13:36:48.478Z,4.72
2022-12-22T13:41:51.193Z,4.65
2022-12-22T13:46:54.443Z,5.07
2022-12-22T13:52:00.292Z,6.75
2022-12-22T13:57:17.080Z,7.20
2022-12-22T14:02:21.079Z,4.43
2022-12-22T14:07:23.211Z,3.85
2022-12-22T14:12:28.647Z,7.65
2022-12-22T14:17:36.612Z,4.30
2022-12-22T14:22:45.330Z,6.93
2022-12-22T14:27:54.616Z,4.38
2022-12-22T14:32:56.807Z,6.13
2022-12-22T14:38:21.916Z,9.50
2022-12-22T14:43:28.091Z,12.95
2022-12-22T14:48:37.048Z,8.38
2022-12-22T14:53:54.546Z,8.57
2022-12-22T14:59:23.871Z,7.53
2022-12-22T15:04:25.725Z,7.65
2022-12-22T15:10:12.378Z,6.75
2022-12-22T15:19:55.279Z,11.30
2022-12-22T15:24:57.049Z,7.45
2022-12-22T15:29:58.893Z,10.10
2022-12-22T15:35:03.332Z,10.70
2022-12-22T15:40:12.639Z,13.73
2022-12-22T15:45:16.029Z,14.88
2022-12-22T15:50:25.554Z,22.67
2022-12-22T15:55:27.808Z,21.58
2022-12-22T16:00:29.989Z,13.75
2022-12-22T16:05:32.835Z,14.30
2022-12-22T16:10:35.013Z,21.02
2022-12-22T16:15:36.984Z,43.17
2022-12-22T16:20:41.216Z,26.02
2022-12-22T16:25:45.524Z,20.83
2022-12-22T16:30:47.860Z,13.25
2022-12-22T16:35:49.730Z,8.82
2022-12-22T16:40:53.299Z,21.77
2022-12-22T16:45:55.301Z,29.23
2022-12-22T16:50:57.186Z,12.52
2022-12-22T16:56:01.719Z,19.42
2022-12-22T17:01:03.638Z,11.50
2022-12-22T17:06:05.904Z,11.20
2022-12-22T17:11:11.373Z,10.63
2022-12-22T17:16:22.116Z,30.08
2022-12-22T17:21:24.976Z,42.23
2022-12-22T17:26:26.840Z,30.23
2022-12-22T17:31:28.777Z,15.35
2022-12-22T17:36:36.220Z,17.67
2022-12-22T17:41:38.212Z,24.67
2022-12-22T17:46:40.066Z,20.85
2022-12-22T17:51:42.542Z,25.98
2022-12-22T17:56:44.364Z,28.88
2022-12-22T18:01:46.299Z,15.73
2022-12-22T18:06:48.467Z,91.63
2022-12-22T18:11:50.691Z,24.08
2022-12-22T18:16:52.547Z,24.90
2022-12-22T18:21:54.524Z,20.75
2022-12-22T18:26:56.295Z,30.80
2022-12-22T18:31:58.130Z,38.10
2022-12-22T18:37:00.289Z,44.65
2022-12-22T18:42:03.069Z,36.33
2022-12-22T18:47:04.850Z,20.70
2022-12-22T18:52:22.091Z,28.95
2022-12-22T18:57:23.935Z,17.17
2022-12-22T19:02:28.324Z,46.10
2022-12-22T19:07:30.171Z,35.92
2022-12-22T19:12:32.319Z,19.08
2022-12-22T19:17:34.069Z,28.50
2022-12-22T19:22:35.854Z,14.65
2022-12-22T19:27:38.046Z,15.20
2022-12-22T19:32:44.343Z,15.07
2022-12-22T19:37:48.008Z,21.25
2022-12-22T19:42:53.489Z,23.20
2022-12-22T19:47:56.955Z,21.08
2022-12-22T19:52:59.351Z,15.52
2022-12-22T19:58:02.214Z,20.33
2022-12-22T20:03:06.285Z,17.90
2022-12-22T20:08:08.349Z,15.27
2022-12-22T20:13:19.400Z,19.48
2022-12-22T20:18:24.230Z,16.00
2022-12-22T20:23:27.775Z,20.40
2022-12-22T20:28:33.083Z,16.90
2022-12-22T20:33:35.057Z,22.08
2022-12-22T20:38:40.181Z,13.10
2022-12-22T20:43:42.072Z,14.90
2022-12-22T20:48:47.775Z,16.55
2022-12-22T20:53:50.220Z,16.83
2022-12-22T20:58:52.295Z,16.75
2022-12-22T21:03:54.459Z,15.20
2022-12-22T21:08:59.319Z,16.90
2022-12-22T21:14:01.079Z,17.65
2022-12-22T21:19:03.604Z,14.00
2022-12-22T21:24:05.684Z,19.45
2022-12-22T21:29:17.211Z,12.77
2022-12-22T21:34:20.822Z,15.25
2022-12-22T21:39:31.686Z,15.65
2022-12-22T21:44:35.477Z,16.05
2022-12-22T21:49:37.393Z,14.43
2022-12-22T21:54:39.390Z,9.18
2022-12-22T21:59:41.209Z,12.48
2022-12-22T22:04:46.730Z,11.20
2022-12-22T22:09:53.770Z,12.57
2022-12-22T22:14:55.536Z,9.27
2022-12-22T22:19:57.744Z,7.30
2022-12-22T22:24:59.587Z,7.72
2022-12-22T22:30:01.451Z,9.05
2022-12-22T22:35:03.508Z,5.10
2022-12-22T22:40:07.019Z,9.68
2022-12-22T22:45:10.613Z,5.90
2022-12-22T22:50:12.599Z,9.70
2022-12-22T22:55:15.368Z,5.18
2022-12-22T23:00:18.570Z,3.60
2022-12-22T23:05:23.115Z,5.18
2022-12-22T23:10:25.200Z,6.18
2022-12-22T23:15:26.944Z,5.65
2022-12-22T23:20:28.730Z,5.22
2022-12-22T23:25:30.426Z,11.07
2022-12-22T23:30:32.183Z,5.15
2022-12-22T23:35:38.399Z,5.38
2022-12-22T23:40:56.256Z,6.43
2022-12-22T23:45:58.017Z,4.10
2022-12-22T23:50:59.996Z,5.78
2022-12-22T23:56:01.842Z,4.78
